Time;durP1;ratioP1;P1;durP2;ratioP2;P2;SDS_P1;SDS_P2;PMS_P1;PMS_P2;Temp;Humidity;BMP_temperature;BMP_pressure;BME280_temperature;BME280_humidity;BME280_pressure;Samples;Min_cycle;Max_cycle;Signal;HPM_P1;HPM_P2
2023/08/25 00:00:24;;;;;;;8.82;4.35;;;22.80;99.90;;;;;;6226135;23;20009;-82
2023/08/25 00:02:51;;;;;;;8.20;4.60;;;22.70;99.90;;;;;;6225751;23;20062;-82
2023/08/25 00:05:18;;;;;;;9.93;4.57;;;22.90;99.90;;;;;;6202772;23;20027;-82
2023/08/25 00:07:45;;;;;;;11.55;5.00;;;22.80;99.90;;;;;;6205354;23;20088;-82
2023/08/25 00:10:13;;;;;;;6.25;4.53;;;22.80;99.90;;;;;;6203916;23;20022;-82
2023/08/25 00:12:41;;;;;;;6.80;4.45;;;22.80;99.90;;;;;;6205444;23;20020;-82
2023/08/25 00:15:09;;;;;;;6.50;4.13;;;22.80;99.90;;;;;;6236330;23;20406;-82
2023/08/25 00:17:36;;;;;;;5.40;4.45;;;22.80;99.90;;;;;;6168193;23;20013;-82
2023/08/25 00:20:09;;;;;;;6.35;4.57;;;22.70;99.90;;;;;;6193977;23;20073;-82
2023/08/25 00:22:37;;;;;;;6.73;4.03;;;22.70;99.90;;;;;;6168082;23;20021;-82
2023/08/25 00:25:04;;;;;;;6.32;4.40;;;22.80;99.90;;;;;;6190970;23;20017;-82
2023/08/25 00:27:31;;;;;;;7.57;4.53;;;22.70;99.90;;;;;;6189327;23;20025;-82
2023/08/25 00:29:59;;;;;;;6.13;4.13;;;22.80;99.90;;;;;;6188131;23;20021;-81
2023/08/25 00:32:26;;;;;;;8.73;5.07;;;22.70;99.90;;;;;;6188266;23;20029;-81
2023/08/25 00:34:54;;;;;;;8.25;4.40;;;22.70;99.90;;;;;;6160466;23;20834;-81
2023/08/25 00:37:21;;;;;;;5.95;3.80;;;22.70;99.90;;;;;;6140720;23;20052;-81
2023/08/25 00:39:48;;;;;;;6.70;4.47;;;22.60;99.90;;;;;;6138981;23;20057;-81
2023/08/25 00:42:16;;;;;;;6.03;4.78;;;22.60;99.90;;;;;;6137369;23;20485;-81
2023/08/25 00:44:43;;;;;;;9.43;5.38;;;22.60;99.90;;;;;;6115884;23;20022;-81
2023/08/25 00:47:10;;;;;;;6.57;4.78;;;22.60;99.90;;;;;;6141148;23;20022;-81
2023/08/25 00:49:39;;;;;;;10.38;5.60;;;22.60;99.90;;;;;;6173447;23;20043;-81
2023/08/25 00:52:07;;;;;;;8.38;5.38;;;22.60;99.90;;;;;;6198050;23;20024;-81
2023/08/25 00:54:34;;;;;;;6.43;4.47;;;22.50;99.90;;;;;;6201576;23;20031;-81
2023/08/25 00:57:05;;;;;;;8.48;4.72;;;22.50;99.90;;;;;;6176192;23;20399;-81
2023/08/25 00:59:33;;;;;;;8.27;5.25;;;22.50;99.90;;;;;;6175070;23;20108;-81
2023/08/25 01:02:03;;;;;;;7.60;4.53;;;22.50;99.90;;;;;;6198985;23;20027;-81
2023/08/25 01:04:31;;;;;;;7.32;4.65;;;22.50;99.90;;;;;;6176974;23;20060;-81
2023/08/25 01:06:59;;;;;;;9.05;5.65;;;22.50;99.90;;;;;;6192862;23;20074;-81
2023/08/25 01:09:26;;;;;;;9.18;4.82;;;22.40;99.90;;;;;;6170733;23;20028;-81
2023/08/25 01:11:59;;;;;;;6.90;4.35;;;22.50;99.90;;;;;;6195963;23;20029;-81
2023/08/25 01:14:49;;;;;;;7.90;4.78;;;22.40;99.90;;;;;;6200018;23;20025;-81
2023/08/25 01:17:37;;;;;;;7.68;4.57;;;22.40;99.90;;;;;;6200562;23;20515;-81
2023/08/25 01:20:06;;;;;;;10.25;6.10;;;22.30;99.90;;;;;;6195393;23;20020;-81
2023/08/25 01:23:02;;;;;;;8.43;5.18;;;22.20;99.90;;;;;;6173041;23;20023;-81
2023/08/25 01:25:30;;;;;;;8.52;5.05;;;22.50;99.90;;;;;;6198522;23;20107;-81
2023/08/25 01:28:00;;;;;;;7.72;5.03;;;22.20;99.90;;;;;;6203520;23;20127;-81
2023/08/25 01:30:30;;;;;;;8.30;5.75;;;22.30;99.90;;;;;;6202431;23;20008;-81
2023/08/25 01:33:00;;;;;;;8.65;5.82;;;22.10;99.90;;;;;;6200688;23;20020;-81
2023/08/25 01:35:38;;;;;;;9.27;5.65;;;22.30;99.90;;;;;;6216664;23;20022;-80
2023/08/25 01:38:27;;;;;;;8.13;4.93;;;22.50;99.90;;;;;;6211518;23;20012;-80
2023/08/25 01:41:11;;;;;;;9.00;5.45;;;22.10;99.90;;;;;;6233099;22;20047;-81
2023/08/25 01:43:52;;;;;;;;;;;22.20;99.90;;;;;;6237897;23;20022;-81
2023/08/25 01:46:23;;;;;;;9.30;4.95;;;21.90;99.90;;;;;;6183403;23;19920;-81
2023/08/25 01:48:54;;;;;;;7.57;5.57;;;22.10;99.90;;;;;;6230136;23;20020;-80
2023/08/25 01:51:31;;;;;;;9.75;6.43;;;22.10;99.90;;;;;;6259837;23;20024;-81
2023/08/25 01:54:03;;;;;;;7.63;5.05;;;22.00;99.90;;;;;;6211432;23;20020;-81
2023/08/25 01:56:30;;;;;;;7.28;4.93;;;22.00;99.90;;;;;;6211664;23;20012;-81
2023/08/25 01:59:00;;;;;;;7.88;4.72;;;22.10;99.90;;;;;;6235815;23;20082;-81
2023/08/25 02:01:28;;;;;;;8.52;5.55;;;22.10;99.90;;;;;;6232409;23;20024;-81
2023/08/25 02:03:55;;;;;;;9.55;5.30;;;22.00;99.90;;;;;;6233745;23;20432;-81
2023/08/25 02:06:25;;;;;;;10.55;5.03;;;22.00;99.90;;;;;;6199840;23;20699;-81
2023/08/25 02:08:54;;;;;;;9.38;5.65;;;22.30;99.90;;;;;;6143932;23;20028;-80
2023/08/25 02:11:21;;;;;;;10.43;5.68;;;22.70;99.90;;;;;;6164691;23;20940;-80
2023/08/25 02:13:48;;;;;;;9.52;5.95;;;22.00;99.90;;;;;;6192755;23;20036;-80
2023/08/25 02:16:18;;;;;;;8.52;5.05;;;22.00;99.90;;;;;;6168755;23;20124;-80
2023/08/25 02:18:46;;;;;;;8.65;5.80;;;21.90;99.90;;;;;;6173125;23;20068;-80
2023/08/25 02:21:15;;;;;;;10.23;5.97;;;21.90;99.90;;;;;;6195296;23;20013;-80
2023/08/25 02:23:43;;;;;;;11.77;6.13;;;21.70;99.90;;;;;;6170068;23;20476;-80
2023/08/25 02:26:10;;;;;;;8.18;5.57;;;21.80;99.90;;;;;;6085995;23;20335;-80
2023/08/25 02:28:38;;;;;;;10.57;6.13;;;21.80;99.90;;;;;;6080532;23;20022;-80
2023/08/25 02:31:05;;;;;;;9.82;5.95;;;21.80;99.90;;;;;;6083996;23;20027;-80
2023/08/25 02:33:34;;;;;;;11.75;7.05;;;22.00;99.90;;;;;;6082979;23;20497;-80
2023/08/25 02:36:02;;;;;;;10.13;5.65;;;21.80;99.90;;;;;;6052998;23;20106;-80
2023/08/25 02:38:29;;;;;;;10.85;6.07;;;21.70;99.90;;;;;;6103227;23;20085;-80
2023/08/25 02:40:58;;;;;;;9.35;6.07;;;21.70;99.90;;;;;;6086725;23;20411;-81
2023/08/25 02:43:25;;;;;;;10.10;5.43;;;21.70;99.90;;;;;;6083410;23;20018;-81
2023/08/25 02:45:53;;;;;;;8.93;5.82;;;21.70;99.90;;;;;;6085353;23;20038;-80
2023/08/25 02:48:42;;;;;;;14.20;6.15;;;21.80;99.90;;;;;;6087878;23;20022;-81
2023/08/25 02:51:11;;;;;;;7.95;5.40;;;21.70;99.90;;;;;;6050133;23;20061;-80
2023/08/25 02:53:40;;;;;;;12.60;6.97;;;21.70;99.90;;;;;;6058422;23;20029;-80
2023/08/25 02:56:09;;;;;;;11.15;6.40;;;21.70;99.90;;;;;;6064307;23;20043;-80
2023/08/25 02:58:37;;;;;;;10.70;6.45;;;22.00;99.90;;;;;;6165280;23;20021;-80
2023/08/25 03:01:17;;;;;;;11.43;6.40;;;21.60;99.90;;;;;;6189280;23;20028;-80
2023/08/25 03:03:45;;;;;;;10.02;6.45;;;21.60;99.90;;;;;;6158120;23;20021;-80
2023/08/25 03:06:13;;;;;;;11.63;6.50;;;21.70;99.90;;;;;;6163988;23;20155;-80
2023/08/25 03:08:41;;;;;;;10.27;6.75;;;21.60;99.90;;;;;;6140495;23;20025;-80
2023/08/25 03:11:09;;;;;;;9.73;6.78;;;21.60;99.90;;;;;;6144697;23;20032;-80
2023/08/25 03:13:39;;;;;;;11.25;7.18;;;21.10;99.90;;;;;;6144761;23;20108;-80
2023/08/25 03:16:11;;;;;;;12.07;7.32;;;21.60;99.90;;;;;;6169733;23;20027;-80
2023/08/25 03:18:40;;;;;;;11.43;6.95;;;21.60;99.90;;;;;;6143591;23;20041;-80
2023/08/25 03:21:07;;;;;;;13.73;7.55;;;21.70;99.90;;;;;;6143060;23;20017;-80
2023/08/25 03:23:39;;;;;;;11.77;7.00;;;21.60;99.90;;;;;;6151004;23;20451;-80
2023/08/25 03:26:12;;;;;;;12.50;7.57;;;21.50;99.90;;;;;;6178572;22;20036;-79
2023/08/25 03:28:42;;;;;;;11.07;7.28;;;21.40;99.90;;;;;;6239309;23;20020;-80
2023/08/25 03:31:09;;;;;;;11.85;8.25;;;21.40;99.90;;;;;;6241553;22;20027;-80
2023/08/25 03:33:43;;;;;;;13.23;7.85;;;21.40;99.90;;;;;;6196916;23;20021;-81
2023/08/25 03:36:11;;;;;;;9.98;7.32;;;21.60;99.90;;;;;;6166001;23;20048;-81
2023/08/25 03:38:39;;;;;;;10.90;6.40;;;21.50;99.90;;;;;;6163546;23;20021;-81
2023/08/25 03:41:12;;;;;;;11.13;7.03;;;21.70;99.90;;;;;;6187202;22;20024;-80
2023/08/25 03:43:39;;;;;;;13.07;7.40;;;21.40;99.90;;;;;;6228445;23;20110;-80
2023/08/25 03:46:07;;;;;;;12.63;7.55;;;21.60;99.90;;;;;;6201830;23;20027;-80
2023/08/25 03:48:35;;;;;;;12.25;7.60;;;21.40;99.90;;;;;;6230096;23;20028;-80
2023/08/25 03:51:04;;;;;;;10.57;7.05;;;21.50;99.90;;;;;;6201946;23;20139;-80
2023/08/25 03:53:31;;;;;;;12.00;7.18;;;21.60;99.90;;;;;;6225721;22;20043;-80
2023/08/25 03:55:58;;;;;;;11.40;8.10;;;21.70;99.90;;;;;;6206806;23;20040;-80
2023/08/25 03:58:27;;;;;;;9.52;5.75;;;21.70;99.90;;;;;;6199960;23;20016;-80
2023/08/25 04:00:58;;;;;;;12.00;7.88;;;21.70;99.90;;;;;;6190454;23;20443;-81
2023/08/25 04:03:26;;;;;;;10.32;6.82;;;21.70;99.90;;;;;;6225925;23;20363;-81
2023/08/25 04:06:17;;;;;;;10.45;7.32;;;21.80;99.90;;;;;;6225827;22;20063;31
2023/08/25 04:08:45;;;;;;;12.60;7.33;;;21.80;99.90;;;;;;6166322;23;20052;-79
2023/08/25 04:11:12;;;;;;;12.00;6.93;;;21.70;99.90;;;;;;6198701;23;20510;-79
2023/08/25 04:13:39;;;;;;;14.02;6.15;;;21.90;99.90;;;;;;6203400;23;20016;-79
2023/08/25 04:16:08;;;;;;;10.23;7.38;;;21.80;99.90;;;;;;6215466;23;20035;-79
2023/08/25 04:18:35;;;;;;;10.80;6.68;;;21.80;99.90;;;;;;6192442;23;20027;-79
2023/08/25 04:21:07;;;;;;;15.35;8.07;;;21.80;99.90;;;;;;6236508;23;20020;-80
2023/08/25 04:26:15;;;;;;;11.23;6.65;;;21.70;99.90;;;;;;6203755;22;20028;-79
2023/08/25 04:28:43;;;;;;;12.48;7.88;;;21.70;99.90;;;;;;6200994;22;20009;-79
2023/08/25 04:31:10;;;;;;;11.05;7.00;;;21.70;99.90;;;;;;6231603;22;20023;-79
2023/08/25 04:33:42;;;;;;;12.00;8.05;;;21.80;99.90;;;;;;6235173;22;20051;-80
2023/08/25 04:36:45;;;;;;;11.57;6.68;;;21.80;99.90;;;;;;6242931;22;20018;-81
2023/08/25 04:39:13;;;;;;;11.43;7.05;;;21.90;99.90;;;;;;6245524;22;20003;-81
2023/08/25 04:41:42;;;;;;;11.80;6.80;;;21.90;99.90;;;;;;6244172;22;20079;-81
2023/08/25 04:44:09;;;;;;;12.70;7.68;;;21.90;99.90;;;;;;6244749;22;20015;-81
2023/08/25 04:46:38;;;;;;;12.25;6.57;;;22.00;99.90;;;;;;6197292;23;20016;-80
2023/08/25 04:49:05;;;;;;;9.65;6.32;;;22.00;99.90;;;;;;6187193;23;20025;-80
2023/08/25 04:51:36;;;;;;;13.25;6.68;;;22.00;99.90;;;;;;6187599;23;20016;-79
2023/08/25 04:54:07;;;;;;;11.57;6.20;;;22.00;99.90;;;;;;6167084;23;20024;-80
2023/08/25 04:56:38;;;;;;;12.93;6.93;;;22.00;99.90;;;;;;6188826;23;20471;-80
2023/08/25 04:59:05;;;;;;;11.68;7.28;;;22.00;99.90;;;;;;6198102;23;20051;-81
2023/08/25 05:01:33;;;;;;;10.85;6.57;;;22.00;99.90;;;;;;6170408;23;20697;-81
2023/08/25 05:04:04;;;;;;;11.25;7.05;;;21.90;99.90;;;;;;6194477;23;20758;-81
2023/08/25 05:06:31;;;;;;;10.52;6.47;;;22.00;99.90;;;;;;6194765;23;20028;-82
2023/08/25 05:09:01;;;;;;;15.65;8.80;;;22.00;99.90;;;;;;6140967;23;20064;-82
2023/08/25 05:11:33;;;;;;;12.55;7.57;;;22.00;99.90;;;;;;6193862;22;20088;-81
2023/08/25 05:14:01;;;;;;;11.18;7.03;;;21.90;99.90;;;;;;6231077;23;20044;-81
2023/08/25 05:16:29;;;;;;;13.65;8.10;;;22.00;99.90;;;;;;6220695;23;20039;-80
2023/08/25 05:19:03;;;;;;;14.43;7.50;;;22.00;99.90;;;;;;6220477;23;20024;-82
2023/08/25 05:21:33;;;;;;;11.82;6.95;;;22.00;99.90;;;;;;6170352;23;20051;-81
2023/08/25 05:24:34;;;;;;;13.80;8.05;;;21.90;99.90;;;;;;6194468;23;20024;-80
2023/08/25 05:27:01;;;;;;;13.48;8.00;;;21.90;99.90;;;;;;6224197;23;20020;-79
2023/08/25 05:29:36;;;;;;;12.55;7.32;;;21.70;99.90;;;;;;6221628;23;20600;-80
2023/08/25 05:32:14;;;;;;;17.15;8.95;;;21.70;99.90;;;;;;6222669;23;20027;-81
2023/08/25 05:35:01;;;;;;;13.23;7.88;;;21.70;99.90;;;;;;6204993;23;20070;-82
2023/08/25 05:37:28;;;;;;;13.25;8.18;;;21.80;99.90;;;;;;6246810;23;20024;-80
2023/08/25 05:39:56;;;;;;;12.43;8.20;;;21.80;99.90;;;;;;6225294;23;20020;-82
2023/08/25 05:46:25;;;;;;;13.75;8.82;;;21.90;99.90;;;;;;6256755;22;20019;-78
2023/08/25 05:48:52;;;;;;;13.57;9.75;;;21.60;99.90;;;;;;6236152;23;20395;-80
2023/08/25 05:51:58;;;;;;;14.05;8.80;;;21.70;99.90;;;;;;6218156;23;20026;-80
2023/08/25 05:54:48;;;;;;;16.25;9.32;;;21.70;99.90;;;;;;6106800;23;20018;-80
2023/08/25 05:57:16;;;;;;;17.30;9.20;;;21.80;99.90;;;;;;6159274;22;20024;-80
2023/08/25 05:59:58;;;;;;;13.65;8.63;;;21.70;99.90;;;;;;6240043;22;20034;-80
2023/08/25 06:02:25;;;;;;;12.63;7.90;;;21.70;99.90;;;;;;6245708;22;20045;-80
2023/08/25 06:04:53;;;;;;;14.55;8.63;;;21.90;99.90;;;;;;6222050;22;20347;-80
2023/08/25 06:07:21;;;;;;;13.93;8.45;;;22.00;99.90;;;;;;6215832;22;20102;-80
2023/08/25 06:09:48;;;;;;;13.10;8.32;;;22.00;99.90;;;;;;6247456;22;20019;-80
2023/08/25 06:12:18;;;;;;;13.07;8.60;;;22.00;99.90;;;;;;6230369;22;20023;-80
2023/08/25 06:15:00;;;;;;;11.85;7.82;;;22.10;99.90;;;;;;6205934;23;20016;-81
2023/08/25 06:17:35;;;;;;;16.35;9.27;;;22.10;99.90;;;;;;6194862;23;20070;-81
2023/08/25 06:20:13;;;;;;;14.90;8.65;;;22.10;99.90;;;;;;6121666;23;20016;-81
2023/08/25 06:22:41;;;;;;;14.63;9.30;;;22.10;99.90;;;;;;6222101;23;20086;-81
2023/08/25 06:25:08;;;;;;;17.17;9.60;;;22.20;99.90;;;;;;6212512;23;20039;-81
2023/08/25 06:27:36;;;;;;;15.65;9.35;;;22.20;99.90;;;;;;6213293;23;20135;-81
2023/08/25 06:30:04;;;;;;;13.68;9.40;;;22.30;99.90;;;;;;6211658;23;20028;-81
2023/08/25 06:32:31;;;;;;;14.85;9.25;;;22.30;99.90;;;;;;6185039;23;20435;-81
2023/08/25 06:34:59;;;;;;;11.25;8.15;;;22.30;99.90;;;;;;6209730;23;20030;-81
2023/08/25 06:37:26;;;;;;;12.55;8.73;;;22.40;99.90;;;;;;6210132;23;20016;-81
2023/08/25 06:39:53;;;;;;;15.57;9.45;;;22.40;99.90;;;;;;6158573;23;20370;-81
2023/08/25 06:42:20;;;;;;;15.52;8.90;;;22.50;99.90;;;;;;6211297;23;20039;-82
2023/08/25 06:44:47;;;;;;;10.85;7.97;;;22.50;99.90;;;;;;6210376;23;20459;-80
2023/08/25 06:47:14;;;;;;;15.00;9.77;;;22.60;99.90;;;;;;6210659;23;20058;-80
2023/08/25 06:49:41;;;;;;;12.43;8.55;;;22.60;99.90;;;;;;6234832;23;20034;-81
2023/08/25 06:52:09;;;;;;;14.60;9.38;;;22.60;99.90;;;;;;6210094;23;20082;-81
2023/08/25 06:54:36;;;;;;;13.30;9.57;;;22.70;99.90;;;;;;6209462;23;20070;-81
2023/08/25 06:57:03;;;;;;;13.40;8.27;;;22.60;99.90;;;;;;6208376;23;20039;-81
2023/08/25 06:59:30;;;;;;;12.95;8.80;;;22.70;99.90;;;;;;6200354;23;20027;-81
2023/08/25 07:01:57;;;;;;;15.25;8.52;;;22.80;99.90;;;;;;6208697;23;20027;-81
2023/08/25 07:04:26;;;;;;;11.52;7.72;;;22.90;99.90;;;;;;6210215;23;20012;-82
2023/08/25 07:06:53;;;;;;;12.77;8.00;;;23.10;99.90;;;;;;6208541;23;20027;-81
2023/08/25 07:09:20;;;;;;;11.65;7.10;;;23.20;99.90;;;;;;6209324;23;20074;-82
2023/08/25 07:11:49;;;;;;;14.05;8.68;;;23.20;99.90;;;;;;6237533;23;20028;-82
2023/08/25 07:14:20;;;;;;;13.43;8.75;;;23.20;99.90;;;;;;6211912;23;20396;-83
2023/08/25 07:16:48;;;;;;;10.95;7.70;;;23.20;99.90;;;;;;6189243;23;20110;-83
2023/08/25 07:19:16;;;;;;;10.77;7.47;;;23.30;99.90;;;;;;6212966;23;20425;-83
2023/08/25 07:21:44;;;;;;;13.43;8.63;;;23.30;99.90;;;;;;6211655;23;20020;-83
2023/08/25 07:24:11;;;;;;;17.30;8.60;;;23.50;99.90;;;;;;6211941;23;20047;-83
2023/08/25 07:26:41;;;;;;;11.30;7.13;;;23.60;99.90;;;;;;6212510;23;20028;-83
2023/08/25 07:29:08;;;;;;;12.85;8.43;;;23.80;99.90;;;;;;6236707;23;20034;-82
2023/08/25 07:31:35;;;;;;;12.52;8.90;;;24.00;99.90;;;;;;6234794;23;20514;-82
2023/08/25 07:34:03;;;;;;;11.25;8.18;;;24.00;99.90;;;;;;6210713;23;20043;-82
2023/08/25 07:36:30;;;;;;;13.05;7.88;;;24.10;99.90;;;;;;6211116;23;20047;-85
2023/08/25 07:38:57;;;;;;;20.42;9.55;;;24.20;99.90;;;;;;6212018;23;20387;-83
2023/08/25 07:41:24;;;;;;;13.20;8.80;;;24.20;99.90;;;;;;6236130;23;20021;-82
2023/08/25 07:43:51;;;;;;;12.85;7.93;;;24.30;99.90;;;;;;6235012;23;20043;-81
2023/08/25 07:46:19;;;;;;;12.20;8.75;;;24.40;99.90;;;;;;6186458;23;20024;-83
2023/08/25 07:48:46;;;;;;;13.30;8.60;;;24.50;99.90;;;;;;6176375;23;20500;-83
2023/08/25 07:51:14;;;;;;;13.55;9.20;;;24.60;99.90;;;;;;6235109;23;20039;-83
2023/08/25 07:53:50;;;;;;;11.75;8.57;;;24.70;99.90;;;;;;6236613;23;20024;-81
2023/08/25 07:56:17;;;;;;;14.32;8.55;;;24.90;99.90;;;;;;6211553;23;20462;-83
2023/08/25 07:58:45;;;;;;;11.13;8.50;;;25.10;99.90;;;;;;6186821;23;20031;-80
2023/08/25 08:01:12;;;;;;;13.90;8.45;;;25.30;99.90;;;;;;6207524;23;20020;-81
2023/08/25 08:03:39;;;;;;;12.10;8.48;;;25.50;99.90;;;;;;6210800;23;20035;-83
2023/08/25 08:06:07;;;;;;;11.85;7.50;;;25.50;99.90;;;;;;6236552;23;20024;-81
2023/08/25 08:08:34;;;;;;;9.93;7.38;;;25.40;99.90;;;;;;6209569;23;20444;-79
2023/08/25 08:11:02;;;;;;;11.25;8.20;;;25.40;99.90;;;;;;6235409;23;20054;-83
2023/08/25 08:13:30;;;;;;;9.48;7.43;;;25.40;99.90;;;;;;6209746;23;20028;-82
2023/08/25 08:15:57;;;;;;;11.15;6.97;;;25.40;99.90;;;;;;6237557;23;20384;-83
2023/08/25 08:18:24;;;;;;;13.95;8.15;;;25.70;99.90;;;;;;6213678;23;20072;-80
2023/08/25 08:20:51;;;;;;;9.75;7.10;;;25.90;99.90;;;;;;6234461;23;20095;-81
2023/08/25 08:23:18;;;;;;;12.05;8.00;;;26.00;99.90;;;;;;6235487;23;20020;-80
2023/08/25 08:25:46;;;;;;;15.02;8.15;;;26.20;99.90;;;;;;6234701;23;20020;-82
2023/08/25 08:28:13;;;;;;;10.93;7.20;;;26.40;99.90;;;;;;6210877;23;20526;-80
2023/08/25 08:30:43;;;;;;;10.25;5.78;;;26.60;99.10;;;;;;6187473;23;20051;-80
2023/08/25 08:33:13;;;;;;;9.57;6.03;;;26.80;98.50;;;;;;6209812;23;20024;-80
2023/08/25 08:35:40;;;;;;;9.25;5.20;;;26.80;98.10;;;;;;6206727;23;20028;-79
2023/08/25 08:38:08;;;;;;;13.55;5.07;;;26.60;96.90;;;;;;6208835;23;20024;-83
2023/08/25 08:40:36;;;;;;;8.18;5.43;;;26.40;98.60;;;;;;6208880;23;20024;-81
2023/08/25 08:43:07;;;;;;;9.18;5.18;;;26.30;98.40;;;;;;6208937;23;20086;-80
2023/08/25 08:45:36;;;;;;;8.10;6.25;;;26.20;99.60;;;;;;6208457;23;20020;-80
2023/08/25 08:48:07;;;;;;;8.07;5.32;;;26.20;99.90;;;;;;6235896;23;20016;-82
2023/08/25 08:50:35;;;;;;;11.13;6.15;;;26.10;99.90;;;;;;6236806;23;20027;-82
2023/08/25 08:53:04;;;;;;;12.65;5.97;;;26.10;99.80;;;;;;6210323;23;20056;-82
2023/08/25 08:55:34;;;;;;;6.45;4.82;;;26.10;99.90;;;;;;6210144;23;20030;-82
2023/08/25 08:58:01;;;;;;;6.75;4.50;;;26.20;99.40;;;;;;6212366;23;20063;-81
2023/08/25 09:00:30;;;;;;;8.10;4.88;;;26.50;99.30;;;;;;6212870;23;20035;-81
2023/08/25 09:03:00;;;;;;;7.75;4.35;;;26.50;98.30;;;;;;6237748;23;20019;-82
2023/08/25 09:05:28;;;;;;;7.40;3.63;;;26.50;98.20;;;;;;6189993;23;20016;-82
2023/08/25 09:08:06;;;;;;;8.68;4.95;;;26.50;97.90;;;;;;6189002;23;20028;-82
2023/08/25 09:10:34;;;;;;;6.80;4.70;;;26.60;97.80;;;;;;6209181;23;20102;-82
2023/08/25 09:13:02;;;;;;;9.70;4.25;;;26.80;97.70;;;;;;6206134;23;20440;-82
2023/08/25 09:15:30;;;;;;;8.88;4.18;;;26.90;97.80;;;;;;6210988;23;20032;-82
2023/08/25 09:18:08;;;;;;;6.07;3.70;;;27.00;96.50;;;;;;6209830;23;20020;-81
2023/08/25 09:20:38;;;;;;;4.15;3.03;;;27.10;95.50;;;;;;6212196;23;20016;-81
2023/08/25 09:23:08;;;;;;;4.72;2.78;;;27.20;95.00;;;;;;6237992;23;20153;-81
2023/08/25 09:25:39;;;;;;;5.25;2.67;;;27.20;93.50;;;;;;6210734;23;20403;-81
2023/08/25 09:28:06;;;;;;;4.32;2.65;;;27.30;93.20;;;;;;6237047;23;20024;-82
2023/08/25 09:30:37;;;;;;;4.85;2.78;;;27.30;92.10;;;;;;6211532;23;20024;-80
2023/08/25 09:33:08;;;;;;;7.10;2.55;;;27.40;93.20;;;;;;6209750;23;20024;-79
2023/08/25 09:35:35;;;;;;;6.57;3.67;;;27.40;91.30;;;;;;6236136;23;20023;-81
2023/08/25 09:38:03;;;;;;;6.65;4.55;;;27.50;93.00;;;;;;6187748;23;20024;-81
2023/08/25 09:40:35;;;;;;;6.43;4.05;;;27.60;93.50;;;;;;6212813;23;20452;-82
2023/08/25 09:43:05;;;;;;;;;;;27.60;93.20;;;;;;6213548;23;20066;-82
2023/08/25 09:45:33;;;;;;;6.35;3.80;;;27.70;93.50;;;;;;6186810;23;20347;-79
2023/08/25 09:48:10;;;;;;;5.90;4.43;;;27.60;93.00;;;;;;6212423;23;20032;-82
2023/08/25 09:50:44;;;;;;;6.95;4.05;;;27.70;93.60;;;;;;6240151;23;20024;-80
2023/08/25 09:53:13;;;;;;;5.05;3.63;;;27.90;95.00;;;;;;6239331;23;20032;-83
2023/08/25 09:55:40;;;;;;;6.65;3.90;;;28.00;93.50;;;;;;6236991;23;20099;-80
2023/08/25 09:58:09;;;;;;;6.43;3.97;;;28.00;93.80;;;;;;6211655;23;20051;-79
2023/08/25 10:00:38;;;;;;;5.72;3.97;;;28.00;93.30;;;;;;6237130;23;20123;-80
2023/08/25 10:03:11;;;;;;;4.60;3.10;;;28.10;93.40;;;;;;6187912;23;20024;-83
2023/08/25 10:05:41;;;;;;;4.55;3.22;;;28.00;92.40;;;;;;6213635;23;20024;-81
2023/08/25 10:08:09;;;;;;;6.45;3.17;;;28.00;92.00;;;;;;6206716;23;20024;-82
2023/08/25 10:10:38;;;;;;;5.75;3.72;;;28.10;92.30;;;;;;6213423;23;20420;-83
2023/08/25 10:13:08;;;;;;;7.72;3.65;;;28.10;92.90;;;;;;6211702;23;20024;-81
2023/08/25 10:15:37;;;;;;;7.88;3.40;;;28.10;92.00;;;;;;6209882;23;20029;-82
2023/08/25 10:18:07;;;;;;;4.85;2.80;;;28.00;90.10;;;;;;6238525;23;20031;-82
2023/08/25 10:20:39;;;;;;;6.90;3.25;;;28.00;91.30;;;;;;6210019;23;20074;-81
2023/08/25 10:23:08;;;;;;;6.03;3.30;;;28.00;90.40;;;;;;6237713;23;20091;-82
2023/08/25 10:25:40;;;;;;;6.43;2.90;;;28.10;90.50;;;;;;6239015;23;20407;-83
2023/08/25 10:28:09;;;;;;;5.75;3.25;;;28.20;92.20;;;;;;6238421;23;20070;-82
2023/08/25 10:30:37;;;;;;;6.63;3.70;;;28.20;92.50;;;;;;6211947;23;20027;-82
2023/08/25 10:33:11;;;;;;;4.57;3.20;;;28.30;91.90;;;;;;6213152;23;20154;-82
2023/08/25 10:35:46;;;;;;;5.18;3.50;;;28.40;93.10;;;;;;6212564;23;20067;-81
2023/08/25 10:38:20;;;;;;;4.95;2.80;;;28.40;92.60;;;;;;6211072;23;20023;-83
2023/08/25 10:40:50;;;;;;;5.15;3.00;;;28.40;90.70;;;;;;6215766;23;20024;-81
2023/08/25 10:43:50;;;;;;;7.35;3.20;;;28.30;90.30;;;;;;6211715;23;20024;-82
2023/08/25 10:46:20;;;;;;;5.53;2.92;;;28.40;91.20;;;;;;6237291;23;20020;-80
2023/08/25 10:49:07;;;;;;;5.40;3.05;;;28.50;91.20;;;;;;6235103;23;20024;-82
2023/08/25 10:51:38;;;;;;;5.78;3.20;;;28.60;91.40;;;;;;6213293;23;20024;-82
2023/08/25 10:54:17;;;;;;;7.40;3.35;;;28.50;90.20;;;;;;6214769;23;20088;-81
2023/08/25 10:56:47;;;;;;;5.85;2.65;;;28.60;91.00;;;;;;6209915;23;20126;-81
2023/08/25 10:59:14;;;;;;;2.80;2.00;;;28.70;88.50;;;;;;6237631;23;20020;-82
2023/08/25 11:01:42;;;;;;;4.15;2.40;;;28.70;87.50;;;;;;6211931;23;20086;-81
2023/08/25 11:04:20;;;;;;;5.65;2.72;;;28.70;86.50;;;;;;6185987;23;20016;-82
2023/08/25 11:06:49;;;;;;;4.63;2.60;;;28.70;84.50;;;;;;6210251;23;20478;-81
2023/08/25 11:09:33;;;;;;;5.13;2.70;;;28.70;86.20;;;;;;6211172;23;20024;-81
2023/08/25 11:12:07;;;;;;;7.82;3.30;;;28.80;90.00;;;;;;6238503;23;20412;-83
2023/08/25 11:14:37;;;;;;;6.28;2.85;;;28.90;90.00;;;;;;6213567;23;20028;-80
2023/08/25 11:17:07;;;;;;;5.82;2.42;;;28.90;87.50;;;;;;6214345;23;20059;-81
2023/08/25 11:19:37;;;;;;;5.38;2.42;;;29.00;88.40;;;;;;6238371;23;20016;-80
2023/08/25 11:22:14;;;;;;;4.05;2.13;;;29.00;86.80;;;;;;6212553;23;20024;-82
2023/08/25 11:24:41;;;;;;;5.47;2.08;;;29.10;87.80;;;;;;6210937;23;20444;-80
2023/08/25 11:27:09;;;;;;;6.68;1.90;;;29.10;85.70;;;;;;6210762;23;20443;-82
2023/08/25 11:29:44;;;;;;;7.85;2.25;;;29.10;83.60;;;;;;6211950;23;20020;-83
2023/08/25 11:32:12;;;;;;;3.90;1.83;;;29.10;82.30;;;;;;6235118;23;20089;-80
2023/08/25 11:34:40;;;;;;;3.63;2.25;;;29.20;84.00;;;;;;6211071;23;20024;-81
2023/08/25 11:37:11;;;;;;;2.58;1.85;;;29.30;84.40;;;;;;6210212;23;20039;-80
2023/08/25 11:39:43;;;;;;;3.97;2.25;;;29.20;83.00;;;;;;6211082;23;20024;-80
2023/08/25 11:42:10;;;;;;;4.50;2.10;;;29.20;83.20;;;;;;6211805;23;20344;-80
2023/08/25 11:44:42;;;;;;;3.35;2.45;;;29.20;84.60;;;;;;6212718;23;20432;-80
2023/08/25 11:47:10;;;;;;;3.95;2.15;;;29.20;83.70;;;;;;6236986;23;20020;-80
2023/08/25 11:49:39;;;;;;;5.25;1.90;;;29.20;83.80;;;;;;6237057;23;20016;-81
2023/08/25 11:52:07;;;;;;;4.13;2.15;;;29.20;81.80;;;;;;6234073;23;20090;-80
2023/08/25 11:54:48;;;;;;;3.80;2.30;;;29.40;85.00;;;;;;6203682;23;20486;-80
2023/08/25 11:57:16;;;;;;;4.25;2.15;;;29.40;85.80;;;;;;6211474;23;20101;-81
2023/08/25 11:59:45;;;;;;;3.70;2.22;;;29.40;85.30;;;;;;6212079;23;20020;-81
2023/08/25 12:02:18;;;;;;;4.80;2.47;;;29.30;84.20;;;;;;6209278;23;20016;-81
2023/08/25 12:04:55;;;;;;;3.75;2.50;;;29.30;81.20;;;;;;6234329;23;20024;-81
2023/08/25 12:07:28;;;;;;;4.00;2.27;;;28.80;83.00;;;;;;6212410;23;20020;-80
2023/08/25 12:10:01;;;;;;;2.88;2.00;;;29.30;84.10;;;;;;6208326;23;20457;-82
2023/08/25 12:12:37;;;;;;;3.92;2.45;;;29.20;84.30;;;;;;6235968;23;20435;-82
2023/08/25 12:15:07;;;;;;;5.07;3.08;;;29.20;85.10;;;;;;6236526;23;20572;-82
2023/08/25 12:17:35;;;;;;;4.05;2.08;;;29.20;82.70;;;;;;6209841;23;20391;-81
2023/08/25 12:20:14;;;;;;;4.25;2.03;;;29.40;81.90;;;;;;6238096;23;20020;-82
2023/08/25 12:22:54;;;;;;;5.43;1.98;;;29.30;81.00;;;;;;6212358;23;20071;-81
2023/08/25 12:25:21;;;;;;;7.65;2.53;;;29.40;82.60;;;;;;6210481;23;20036;-81
2023/08/25 12:27:49;;;;;;;5.38;2.20;;;29.50;82.50;;;;;;6236008;23;20020;-81
2023/08/25 12:30:17;;;;;;;4.40;2.40;;;29.50;82.70;;;;;;6208130;23;20119;-81
2023/08/25 12:32:44;;;;;;;3.85;1.95;;;29.50;82.20;;;;;;6206367;23;20027;-81
2023/08/25 12:35:14;;;;;;;3.33;1.80;;;29.50;84.10;;;;;;6215522;23;20024;-80
2023/08/25 12:37:41;;;;;;;4.25;2.22;;;29.60;82.70;;;;;;6219217;23;20020;-80
2023/08/25 12:40:09;;;;;;;3.78;2.10;;;29.60;81.60;;;;;;6217872;23;20557;-81
2023/08/25 12:42:36;;;;;;;6.30;2.90;;;29.70;80.40;;;;;;6234058;23;20479;-79
2023/08/25 12:45:04;;;;;;;4.93;2.00;;;29.70;82.40;;;;;;6218062;23;20028;-80
2023/08/25 12:47:31;;;;;;;5.50;2.75;;;29.70;82.50;;;;;;6214589;23;20040;-81
2023/08/25 12:49:58;;;;;;;3.78;1.38;;;29.70;81.70;;;;;;6195501;23;20030;-81
2023/08/25 12:52:27;;;;;;;3.58;1.50;;;29.70;82.20;;;;;;6210635;23;20019;-79
2023/08/25 12:54:55;;;;;;;2.70;1.02;;;29.60;79.50;;;;;;6218333;23;20047;-81
2023/08/25 12:57:42;;;;;;;4.40;1.25;;;29.60;80.50;;;;;;6195714;23;20038;-79
2023/08/25 13:00:11;;;;;;;3.22;1.17;;;29.70;79.60;;;;;;6215182;23;20031;-79
2023/08/25 13:02:41;;;;;;;1.95;0.85;;;29.70;79.70;;;;;;6213948;23;20030;-80
2023/08/25 13:05:09;;;;;;;4.38;1.25;;;29.70;78.20;;;;;;6218087;23;20082;-81